createdAt,value
2023-05-06T00:00:36.632Z,92993.00
2023-05-06T00:01:36.685Z,92993.00
2023-05-06T00:02:36.797Z,92995.00
2023-05-06T00:03:36.942Z,92995.00
2023-05-06T00:04:36.919Z,92997.00
2023-05-06T00:05:36.957Z,92997.00
2023-05-06T00:06:37.035Z,92997.00
2023-05-06T00:07:37.129Z,92995.00
2023-05-06T00:08:37.174Z,92989.00
2023-05-06T00:09:37.264Z,92983.00
2023-05-06T00:10:37.353Z,92981.00
2023-05-06T00:11:37.399Z,92979.00
2023-05-06T00:12:37.512Z,92976.00
2023-05-06T00:13:37.527Z,92974.00
2023-05-06T00:14:37.593Z,92974.00
2023-05-06T00:15:37.716Z,92972.00
2023-05-06T00:16:37.753Z,92972.00
2023-05-06T00:17:37.826Z,92974.00
2023-05-06T00:18:37.825Z,92976.00
2023-05-06T00:19:37.903Z,92976.00
2023-05-06T00:20:37.946Z,92977.00
2023-05-06T00:21:38.009Z,92977.00
2023-05-06T00:22:38.078Z,92976.00
2023-05-06T00:23:38.128Z,92974.00
2023-05-06T00:24:38.229Z,92976.00
2023-05-06T00:25:38.249Z,92972.00
2023-05-06T00:26:38.321Z,92976.00
2023-05-06T00:27:38.383Z,92970.00
2023-05-06T00:28:38.461Z,92972.00
2023-05-06T00:29:38.539Z,92970.00
2023-05-06T00:30:38.599Z,92970.00
2023-05-06T00:31:38.803Z,92968.00
2023-05-06T00:32:38.787Z,92966.00
2023-05-06T00:33:38.822Z,92962.00
2023-05-06T00:34:38.902Z,92960.00
2023-05-06T00:35:38.959Z,92958.00
2023-05-06T00:36:39.023Z,92960.00
2023-05-06T00:37:39.096Z,92960.00
2023-05-06T00:38:39.150Z,92960.00
2023-05-06T00:39:39.224Z,92962.00
2023-05-06T00:40:39.289Z,92964.00
2023-05-06T00:41:39.371Z,92964.00
2023-05-06T00:42:39.439Z,92964.00
2023-05-06T00:43:39.523Z,92962.00
2023-05-06T00:44:39.575Z,92956.00
2023-05-06T00:45:39.630Z,92956.00
2023-05-06T00:46:39.696Z,92956.00
2023-05-06T00:47:39.910Z,92956.00
2023-05-06T00:48:39.827Z,92954.00
2023-05-06T00:49:39.925Z,92954.00
2023-05-06T00:50:39.984Z,92954.00
2023-05-06T00:51:40.062Z,92954.00
2023-05-06T00:52:40.129Z,92954.00
2023-05-06T00:53:40.203Z,92954.00
2023-05-06T00:54:40.284Z,92956.00
2023-05-06T00:55:40.363Z,92956.00
2023-05-06T00:56:40.430Z,92954.00
2023-05-06T00:57:40.516Z,92954.00
2023-05-06T00:58:40.569Z,92954.00
2023-05-06T00:59:40.659Z,92952.00
2023-05-06T01:00:40.721Z,92950.00
2023-05-06T01:01:40.841Z,92952.00
2023-05-06T01:02:47.626Z,92950.00
2023-05-06T01:03:42.234Z,92950.00
2023-05-06T01:04:40.896Z,92950.00
2023-05-06T01:05:40.862Z,92946.00
2023-05-06T01:06:40.894Z,92948.00
2023-05-06T01:07:40.865Z,92948.00
2023-05-06T01:08:40.887Z,92950.00
2023-05-06T01:09:40.890Z,92948.00
2023-05-06T01:10:40.889Z,92950.00
2023-05-06T01:11:40.972Z,92950.00
2023-05-06T01:12:41.063Z,92948.00
2023-05-06T01:13:41.099Z,92948.00
2023-05-06T01:14:41.174Z,92950.00
2023-05-06T01:15:41.236Z,92948.00
2023-05-06T01:16:41.377Z,92946.00
2023-05-06T01:17:41.432Z,92948.00
2023-05-06T01:18:41.446Z,92948.00
2023-05-06T01:19:41.580Z,92946.00
2023-05-06T01:20:41.588Z,92946.00
2023-05-06T01:21:41.651Z,92944.00
2023-05-06T01:22:41.726Z,92944.00
2023-05-06T01:23:41.805Z,92940.00
2023-05-06T01:24:41.862Z,92942.00
2023-05-06T01:25:41.931Z,92940.00
2023-05-06T01:26:41.997Z,92938.00
2023-05-06T01:27:42.090Z,92940.00
2023-05-06T01:28:42.160Z,92940.00
2023-05-06T01:29:42.241Z,92938.00
2023-05-06T01:30:42.397Z,92938.00
2023-05-06T01:31:42.373Z,92936.00
2023-05-06T01:32:42.478Z,92938.00
2023-05-06T01:33:42.516Z,92936.00
2023-05-06T01:34:42.593Z,92936.00
2023-05-06T01:35:42.725Z,92936.00
2023-05-06T01:36:42.738Z,92934.00
2023-05-06T01:37:42.818Z,92936.00
2023-05-06T01:38:42.895Z,92932.00
2023-05-06T01:39:42.971Z,92934.00
2023-05-06T01:40:43.015Z,92934.00
2023-05-06T01:41:43.079Z,92938.00
2023-05-06T01:42:43.129Z,92940.00
2023-05-06T01:43:43.198Z,92940.00
2023-05-06T01:44:43.273Z,92936.00
2023-05-06T01:45:43.334Z,92936.00
2023-05-06T01:46:43.489Z,92938.00
2023-05-06T01:47:43.500Z,92940.00
2023-05-06T01:48:43.556Z,92940.00
2023-05-06T01:49:43.636Z,92940.00
2023-05-06T01:50:43.709Z,92938.00
2023-05-06T01:51:43.838Z,92936.00
2023-05-06T01:52:43.847Z,92932.00
2023-05-06T01:53:43.922Z,92927.00
2023-05-06T01:54:44.000Z,92929.00
2023-05-06T01:55:44.114Z,92927.00
2023-05-06T01:56:44.140Z,92930.00
2023-05-06T01:57:44.234Z,92932.00
2023-05-06T01:58:44.288Z,92934.00
2023-05-06T01:59:44.356Z,92934.00
2023-05-06T02:00:44.426Z,92932.00
2023-05-06T02:01:44.536Z,92932.00
2023-05-06T02:02:44.705Z,92936.00
2023-05-06T02:03:44.718Z,92934.00
2023-05-06T02:04:44.742Z,92932.00
2023-05-06T02:05:44.807Z,92936.00
2023-05-06T02:06:44.883Z,92936.00
2023-05-06T02:07:45.047Z,92938.00
2023-05-06T02:08:45.016Z,92936.00
2023-05-06T02:09:45.086Z,92936.00
2023-05-06T02:10:45.151Z,92936.00
2023-05-06T02:11:45.212Z,92936.00
2023-05-06T02:12:45.302Z,92934.00
2023-05-06T02:13:45.373Z,92930.00
2023-05-06T02:14:45.446Z,92930.00
2023-05-06T02:15:45.526Z,92930.00
2023-05-06T02:16:45.588Z,92925.00
2023-05-06T02:17:45.669Z,92923.00
2023-05-06T02:18:45.743Z,92921.00
2023-05-06T02:19:45.944Z,92921.00
2023-05-06T02:20:45.889Z,92923.00
2023-05-06T02:21:45.952Z,92921.00
2023-05-06T02:22:46.015Z,92923.00
2023-05-06T02:23:46.155Z,92925.00
2023-05-06T02:24:46.161Z,92925.00
2023-05-06T02:25:46.241Z,92925.00
2023-05-06T02:26:46.320Z,92921.00
2023-05-06T02:27:46.395Z,92921.00
2023-05-06T02:28:46.452Z,92919.00
2023-05-06T02:29:46.516Z,92917.00
2023-05-06T02:30:46.567Z,92919.00
2023-05-06T02:31:46.690Z,92921.00
2023-05-06T02:32:46.733Z,92919.00
2023-05-06T02:33:46.793Z,92917.00
2023-05-06T02:34:46.842Z,92917.00
2023-05-06T02:35:46.889Z,92915.00
2023-05-06T02:36:46.957Z,92911.00
2023-05-06T02:37:47.022Z,92911.00
2023-05-06T02:38:47.108Z,92909.00
2023-05-06T02:39:47.240Z,92909.00
2023-05-06T02:40:47.258Z,92907.00
2023-05-06T02:41:47.340Z,92903.00
2023-05-06T02:42:47.437Z,92905.00
2023-05-06T02:43:47.467Z,92907.00
2023-05-06T02:44:47.534Z,92907.00
2023-05-06T02:45:47.613Z,92907.00
2023-05-06T02:46:47.677Z,92911.00
2023-05-06T02:47:47.782Z,92907.00
2023-05-06T02:48:47.794Z,92907.00
2023-05-06T02:49:47.855Z,92905.00
2023-05-06T02:50:47.917Z,92901.00
2023-05-06T02:51:47.978Z,92901.00
2023-05-06T02:52:48.033Z,92903.00
2023-05-06T02:53:48.085Z,92901.00
2023-05-06T02:54:48.154Z,92899.00
2023-05-06T02:55:48.339Z,92899.00
2023-05-06T02:56:48.305Z,92899.00
2023-05-06T02:57:48.446Z,92897.00
2023-05-06T02:58:48.463Z,92895.00
2023-05-06T02:59:48.510Z,92895.00
2023-05-06T03:00:48.618Z,92895.00
2023-05-06T03:01:48.662Z,92895.00
2023-05-06T03:02:48.743Z,92895.00
2023-05-06T03:03:48.817Z,92893.00
2023-05-06T03:04:48.870Z,92891.00
2023-05-06T03:05:48.928Z,92893.00
2023-05-06T03:06:49.007Z,92893.00
2023-05-06T03:07:49.062Z,92891.00
2023-05-06T03:08:49.127Z,92893.00
2023-05-06T03:09:49.187Z,92893.00
2023-05-06T03:10:49.259Z,92893.00
2023-05-06T03:11:49.374Z,92895.00
2023-05-06T03:12:49.451Z,92897.00
2023-05-06T03:13:49.457Z,92897.00
2023-05-06T03:14:49.531Z,92899.00
2023-05-06T03:15:49.610Z,92897.00
2023-05-06T03:16:49.709Z,92897.00
2023-05-06T03:17:49.796Z,92895.00
2023-05-06T03:18:49.836Z,92895.00
2023-05-06T03:19:49.913Z,92897.00
2023-05-06T03:20:49.988Z,92895.00
2023-05-06T03:21:50.079Z,92897.00
2023-05-06T03:22:50.117Z,92897.00
2023-05-06T03:23:50.169Z,92899.00
2023-05-06T03:24:50.226Z,92899.00
2023-05-06T03:25:50.301Z,92901.00
2023-05-06T03:26:50.352Z,92903.00
2023-05-06T03:27:50.585Z,92905.00
2023-05-06T03:28:50.495Z,92905.00
2023-05-06T03:29:50.564Z,92907.00
2023-05-06T03:30:50.648Z,92911.00
2023-05-06T03:31:50.703Z,92911.00
2023-05-06T03:32:50.789Z,92913.00
2023-05-06T03:33:50.832Z,92915.00
2023-05-06T03:34:50.891Z,92917.00
2023-05-06T03:35:50.967Z,92919.00
2023-05-06T03:36:51.058Z,92921.00
2023-05-06T03:37:51.102Z,92925.00
2023-05-06T03:38:51.161Z,92927.00
2023-05-06T03:39:51.244Z,92930.00
2023-05-06T03:40:51.317Z,92934.00
2023-05-06T03:41:51.366Z,92936.00
2023-05-06T03:42:51.459Z,92934.00
2023-05-06T03:43:51.573Z,92936.00
2023-05-06T03:44:51.573Z,92932.00
2023-05-06T03:45:51.640Z,92938.00
2023-05-06T03:46:51.698Z,92934.00
2023-05-06T03:47:51.822Z,92936.00
2023-05-06T03:48:51.850Z,92932.00
2023-05-06T03:49:51.894Z,92934.00
2023-05-06T03:50:51.972Z,92930.00
2023-05-06T03:51:52.027Z,92932.00
2023-05-06T03:52:52.099Z,92927.00
2023-05-06T03:53:54.110Z,92930.00
2023-05-06T03:54:52.402Z,92923.00
2023-05-06T03:55:52.451Z,92925.00
2023-05-06T03:56:52.482Z,92923.00
2023-05-06T03:57:52.540Z,92925.00
2023-05-06T03:58:52.587Z,92929.00
2023-05-06T03:59:52.634Z,92932.00
2023-05-06T04:00:52.708Z,92934.00
2023-05-06T04:01:52.815Z,92934.00
2023-05-06T04:02:52.900Z,92934.00
2023-05-06T04:03:52.912Z,92932.00
2023-05-06T04:04:52.934Z,92930.00
2023-05-06T04:05:53.001Z,92929.00
2023-05-06T04:06:53.129Z,92930.00
2023-05-06T04:07:53.133Z,92930.00
2023-05-06T04:08:53.207Z,92930.00
2023-05-06T04:09:53.261Z,92929.00
2023-05-06T04:10:53.343Z,92930.00
2023-05-06T04:11:53.395Z,92932.00
2023-05-06T04:12:53.524Z,92934.00
2023-05-06T04:13:53.525Z,92938.00
2023-05-06T04:14:53.593Z,92936.00
2023-05-06T04:15:53.738Z,92938.00
2023-05-06T04:16:53.733Z,92938.00
2023-05-06T04:17:53.862Z,92940.00
2023-05-06T04:18:53.856Z,92940.00
2023-05-06T04:19:53.956Z,92940.00
2023-05-06T04:20:53.987Z,92944.00
2023-05-06T04:21:54.072Z,92944.00
2023-05-06T04:22:54.138Z,92948.00
2023-05-06T04:23:54.221Z,92948.00
2023-05-06T04:24:54.289Z,92946.00
2023-05-06T04:25:54.366Z,92950.00
2023-05-06T04:26:54.421Z,92948.00
2023-05-06T04:27:54.488Z,92950.00
2023-05-06T04:28:54.559Z,92950.00
2023-05-06T04:29:54.636Z,92948.00
2023-05-06T04:30:54.696Z,92946.00
2023-05-06T04:31:54.867Z,92946.00
2023-05-06T04:32:54.894Z,92942.00
2023-05-06T04:33:54.938Z,92946.00
2023-05-06T04:34:54.985Z,92944.00
2023-05-06T04:35:55.063Z,92944.00
2023-05-06T04:36:55.110Z,92946.00
2023-05-06T04:37:55.188Z,92948.00
2023-05-06T04:38:55.263Z,92948.00
2023-05-06T04:39:55.312Z,92948.00
2023-05-06T04:40:55.376Z,92950.00
2023-05-06T04:41:55.442Z,92952.00
2023-05-06T04:42:55.510Z,92950.00
2023-05-06T04:43:55.573Z,92952.00
2023-05-06T04:44:55.639Z,92954.00
2023-05-06T04:45:55.823Z,92952.00
2023-05-06T04:46:55.766Z,92954.00
2023-05-06T04:47:55.932Z,92952.00
2023-05-06T04:48:55.881Z,92956.00
2023-05-06T04:49:55.951Z,92958.00
2023-05-06T04:50:56.010Z,92960.00
2023-05-06T04:51:56.080Z,92958.00
2023-05-06T04:52:56.121Z,92962.00
2023-05-06T04:53:56.170Z,92962.00
2023-05-06T04:54:56.207Z,92960.00
2023-05-06T04:55:56.280Z,92958.00
2023-05-06T04:56:56.327Z,92958.00
2023-05-06T04:57:56.391Z,92954.00
2023-05-06T04:58:56.462Z,92954.00
2023-05-06T04:59:56.529Z,92958.00
2023-05-06T05:00:56.613Z,92960.00
2023-05-06T05:01:56.654Z,92960.00
2023-05-06T05:02:56.780Z,92958.00
2023-05-06T05:03:56.776Z,92960.00
2023-05-06T05:04:56.840Z,92960.00
2023-05-06T05:05:56.895Z,92962.00
2023-05-06T05:06:56.961Z,92962.00
2023-05-06T05:07:57.023Z,92960.00
2023-05-06T05:08:57.156Z,92964.00
2023-05-06T05:09:57.169Z,92966.00
2023-05-06T05:10:57.246Z,92964.00
2023-05-06T05:11:57.318Z,92966.00
2023-05-06T05:12:57.402Z,92964.00
2023-05-06T05:13:58.084Z,92966.00
2023-05-06T05:14:57.531Z,92966.00
2023-05-06T05:15:57.600Z,92966.00
2023-05-06T05:16:57.673Z,92966.00
2023-05-06T05:17:57.798Z,92966.00
2023-05-06T05:18:57.767Z,92964.00
2023-05-06T05:19:57.925Z,92962.00
2023-05-06T05:20:57.880Z,92962.00
2023-05-06T05:21:57.923Z,92962.00
2023-05-06T05:22:57.983Z,92962.00
2023-05-06T05:23:58.055Z,92964.00
2023-05-06T05:24:58.094Z,92960.00
2023-05-06T05:25:58.156Z,92964.00
2023-05-06T05:26:58.193Z,92962.00
2023-05-06T05:27:58.289Z,92962.00
2023-05-06T05:28:58.303Z,92956.00
2023-05-06T05:29:58.355Z,92956.00
2023-05-06T05:30:58.475Z,92956.00
2023-05-06T05:31:58.497Z,92958.00
2023-05-06T05:32:58.605Z,92956.00
2023-05-06T05:33:58.631Z,92954.00
2023-05-06T05:34:58.734Z,92954.00
2023-05-06T05:35:58.853Z,92954.00
2023-05-06T05:36:58.860Z,92956.00
2023-05-06T05:37:58.932Z,92952.00
2023-05-06T05:38:58.996Z,92952.00
2023-05-06T05:39:59.061Z,92952.00
2023-05-06T05:40:59.137Z,92948.00
2023-05-06T05:41:59.198Z,92948.00
2023-05-06T05:42:59.267Z,92948.00
2023-05-06T05:43:59.332Z,92950.00
2023-05-06T05:44:59.412Z,92952.00
2023-05-06T05:45:59.488Z,92952.00
2023-05-06T05:46:59.522Z,92952.00
2023-05-06T05:47:59.667Z,92952.00
2023-05-06T05:48:59.648Z,92944.00
2023-05-06T05:49:59.702Z,92944.00
2023-05-06T05:50:59.773Z,92944.00
2023-05-06T05:51:59.901Z,92944.00
2023-05-06T05:52:59.924Z,92944.00
2023-05-06T05:53:59.956Z,92948.00
2023-05-06T05:55:00.010Z,92944.00
2023-05-06T05:56:00.071Z,92942.00
2023-05-06T05:57:00.163Z,92942.00
2023-05-06T05:58:00.271Z,92940.00
2023-05-06T05:59:00.270Z,92938.00
2023-05-06T06:00:00.356Z,92938.00
2023-05-06T06:01:00.414Z,92940.00
2023-05-06T06:02:00.498Z,92940.00
2023-05-06T06:03:00.791Z,92942.00
2023-05-06T06:04:00.886Z,92942.00
2023-05-06T06:05:00.750Z,92942.00
2023-05-06T06:06:00.768Z,92940.00
2023-05-06T06:07:00.836Z,92940.00
2023-05-06T06:08:03.487Z,92938.00
2023-05-06T06:09:00.917Z,92938.00
2023-05-06T06:10:00.921Z,92938.00
2023-05-06T06:11:00.932Z,92936.00
2023-05-06T06:12:00.939Z,92938.00
2023-05-06T06:13:00.962Z,92938.00
2023-05-06T06:14:00.930Z,92936.00
2023-05-06T06:15:01.197Z,92934.00
2023-05-06T06:16:00.993Z,92934.00
2023-05-06T06:17:00.940Z,92932.00
2023-05-06T06:18:00.972Z,92929.00
2023-05-06T06:19:00.973Z,92925.00
2023-05-06T06:20:00.945Z,92927.00
2023-05-06T06:21:00.966Z,92927.00
2023-05-06T06:22:00.959Z,92929.00
2023-05-06T06:23:00.961Z,92929.00
2023-05-06T06:24:00.959Z,92930.00
2023-05-06T06:25:00.959Z,92930.00
2023-05-06T06:26:00.954Z,92930.00
2023-05-06T06:27:00.955Z,92930.00
2023-05-06T06:28:00.962Z,92932.00
2023-05-06T06:29:00.953Z,92930.00
2023-05-06T06:30:01.080Z,92932.00
2023-05-06T06:31:00.956Z,92929.00
2023-05-06T06:32:00.999Z,92929.00
2023-05-06T06:33:00.988Z,92927.00
2023-05-06T06:34:00.958Z,92927.00
2023-05-06T06:35:00.960Z,92925.00
2023-05-06T06:36:00.964Z,92925.00
2023-05-06T06:37:00.965Z,92925.00
2023-05-06T06:38:00.969Z,92925.00
2023-05-06T06:39:00.971Z,92925.00
2023-05-06T06:40:00.955Z,92921.00
2023-05-06T06:41:00.984Z,92921.00
2023-05-06T06:42:00.967Z,92919.00
2023-05-06T06:43:00.983Z,92921.00
2023-05-06T06:44:00.986Z,92919.00
2023-05-06T06:45:01.092Z,92919.00
2023-05-06T06:46:01.063Z,92917.00
2023-05-06T06:47:01.115Z,92917.00
2023-05-06T06:48:01.240Z,92919.00
2023-05-06T06:49:01.237Z,92917.00
2023-05-06T06:50:01.307Z,92917.00
2023-05-06T06:51:01.378Z,92917.00
2023-05-06T06:52:01.449Z,92917.00
2023-05-06T06:53:02.045Z,92915.00
2023-05-06T06:54:01.616Z,92919.00
2023-05-06T06:55:01.701Z,92913.00
2023-05-06T06:56:01.818Z,92915.00
2023-05-06T06:57:01.824Z,92915.00
2023-05-06T06:58:01.910Z,92913.00
2023-05-06T06:59:01.970Z,92915.00
2023-05-06T07:00:02.034Z,92913.00
2023-05-06T07:01:02.109Z,92915.00
2023-05-06T07:02:02.177Z,92913.00
2023-05-06T07:03:02.308Z,92911.00
2023-05-06T07:04:02.369Z,92915.00
2023-05-06T07:05:02.377Z,92911.00
2023-05-06T07:06:02.456Z,92913.00
2023-05-06T07:07:02.507Z,92913.00
2023-05-06T07:08:02.580Z,92913.00
2023-05-06T07:09:02.656Z,92913.00
2023-05-06T07:10:02.720Z,92911.00
2023-05-06T07:11:02.788Z,92911.00
2023-05-06T07:12:02.915Z,92909.00
2023-05-06T07:13:02.960Z,92909.00
2023-05-06T07:14:02.982Z,92907.00
2023-05-06T07:15:03.040Z,92907.00
2023-05-06T07:16:03.075Z,92903.00
2023-05-06T07:17:03.234Z,92905.00
2023-05-06T07:18:03.204Z,92905.00
2023-05-06T07:19:03.236Z,92905.00
2023-05-06T07:20:03.278Z,92905.00
2023-05-06T07:21:03.346Z,92903.00
2023-05-06T07:22:03.403Z,92903.00
2023-05-06T07:23:03.461Z,92901.00
2023-05-06T07:24:03.510Z,92903.00
2023-05-06T07:25:03.553Z,92903.00
2023-05-06T07:26:03.615Z,92903.00
2023-05-06T07:27:03.648Z,92901.00
2023-05-06T07:28:03.751Z,92903.00
2023-05-06T07:29:03.742Z,92905.00
2023-05-06T07:30:03.793Z,92905.00
2023-05-06T07:31:03.882Z,92905.00
2023-05-06T07:32:03.888Z,92903.00
2023-05-06T07:33:03.973Z,92903.00
2023-05-06T07:34:04.016Z,92903.00
2023-05-06T07:35:04.083Z,92901.00
2023-05-06T07:36:04.133Z,92901.00
2023-05-06T07:37:04.186Z,92901.00
2023-05-06T07:38:04.256Z,92903.00
2023-05-06T07:39:04.285Z,92903.00
2023-05-06T07:40:04.390Z,92905.00
2023-05-06T07:41:04.433Z,92905.00
2023-05-06T07:42:04.496Z,92905.00
2023-05-06T07:43:04.561Z,92909.00
2023-05-06T07:44:04.628Z,92911.00
2023-05-06T07:45:04.670Z,92915.00
2023-05-06T07:46:04.918Z,92917.00
2023-05-06T07:47:04.885Z,92917.00
2023-05-06T07:48:04.934Z,92923.00
2023-05-06T07:49:04.940Z,92919.00
2023-05-06T07:50:05.007Z,92921.00
2023-05-06T07:51:05.088Z,92923.00
2023-05-06T07:52:05.129Z,92927.00
2023-05-06T07:53:05.176Z,92927.00
2023-05-06T07:54:05.251Z,92927.00
2023-05-06T07:55:05.314Z,92927.00
2023-05-06T07:56:05.375Z,92930.00
2023-05-06T07:57:05.465Z,92930.00
2023-05-06T07:58:05.531Z,92929.00
2023-05-06T07:59:05.581Z,92929.00
2023-05-06T08:00:05.736Z,92932.00
2023-05-06T08:01:05.708Z,92930.00
2023-05-06T08:02:05.799Z,92936.00
2023-05-06T08:03:05.887Z,92936.00
2023-05-06T08:04:05.941Z,92932.00
2023-05-06T08:05:05.964Z,92934.00
2023-05-06T08:06:06.037Z,92934.00
2023-05-06T08:07:06.093Z,92936.00
2023-05-06T08:08:06.178Z,92936.00
2023-05-06T08:09:06.231Z,92938.00
2023-05-06T08:10:06.309Z,92940.00
2023-05-06T08:11:06.366Z,92940.00
2023-05-06T08:12:06.423Z,92942.00
2023-05-06T08:13:06.550Z,92942.00
2023-05-06T08:14:06.554Z,92942.00
2023-05-06T08:15:06.625Z,92940.00
2023-05-06T08:16:06.855Z,92938.00
2023-05-06T08:17:06.810Z,92938.00
2023-05-06T08:18:20.716Z,92936.00
2023-05-06T08:19:07.817Z,92936.00
2023-05-06T08:20:06.806Z,92934.00
2023-05-06T08:21:06.808Z,92934.00
2023-05-06T08:22:06.804Z,92934.00
2023-05-06T08:23:06.815Z,92934.00
2023-05-06T08:24:06.815Z,92934.00
2023-05-06T08:25:06.818Z,92934.00
2023-05-06T08:26:06.827Z,92936.00
2023-05-06T08:27:06.901Z,92932.00
2023-05-06T08:28:06.980Z,92934.00
2023-05-06T08:29:07.057Z,92932.00
2023-05-06T08:30:07.117Z,92930.00
2023-05-06T08:31:07.185Z,92932.00
2023-05-06T08:32:07.353Z,92934.00
2023-05-06T08:33:07.402Z,92934.00
2023-05-06T08:34:07.394Z,92932.00
2023-05-06T08:35:07.466Z,92932.00
2023-05-06T08:36:07.538Z,92934.00
2023-05-06T08:37:07.602Z,92936.00
2023-05-06T08:38:07.738Z,92938.00
2023-05-06T08:39:07.747Z,92936.00
2023-05-06T08:40:07.806Z,92936.00
2023-05-06T08:41:07.885Z,92936.00
2023-05-06T08:42:07.952Z,92934.00
2023-05-06T08:43:08.035Z,92934.00
2023-05-06T08:44:08.079Z,92932.00
2023-05-06T08:45:08.245Z,92932.00
2023-05-06T08:46:08.223Z,92934.00
2023-05-06T08:47:08.286Z,92932.00
2023-05-06T08:48:08.406Z,92932.00
2023-05-06T08:49:08.425Z,92932.00
2023-05-06T08:50:08.466Z,92930.00
2023-05-06T08:51:08.537Z,92930.00
2023-05-06T08:52:08.598Z,92930.00
2023-05-06T08:53:08.675Z,92929.00
2023-05-06T08:54:08.746Z,92929.00
2023-05-06T08:55:09.046Z,92927.00
2023-05-06T08:56:08.950Z,92923.00
2023-05-06T08:57:10.985Z,92925.00
2023-05-06T08:58:08.916Z,92919.00
2023-05-06T08:59:08.923Z,92919.00
2023-05-06T09:00:08.924Z,92919.00
2023-05-06T09:01:08.952Z,92919.00
2023-05-06T09:02:08.968Z,92915.00
2023-05-06T09:03:09.115Z,92915.00
2023-05-06T09:04:08.923Z,92913.00
2023-05-06T09:05:09.140Z,92913.00
2023-05-06T09:06:08.925Z,92913.00
2023-05-06T09:07:08.911Z,92911.00
2023-05-06T09:08:08.930Z,92911.00
2023-05-06T09:09:08.930Z,92909.00
2023-05-06T09:10:09.294Z,92911.00
2023-05-06T09:11:08.900Z,92907.00
2023-05-06T09:12:08.912Z,92909.00
2023-05-06T09:13:08.943Z,92907.00
2023-05-06T09:14:08.906Z,92907.00
2023-05-06T09:15:09.207Z,92907.00
2023-05-06T09:16:08.924Z,92907.00
2023-05-06T09:17:09.044Z,92905.00
2023-05-06T09:18:08.939Z,92903.00
2023-05-06T09:19:08.896Z,92903.00
2023-05-06T09:20:08.906Z,92901.00
2023-05-06T09:21:09.257Z,92901.00
2023-05-06T09:22:09.749Z,92901.00
2023-05-06T09:23:08.893Z,92899.00
2023-05-06T09:24:08.925Z,92901.00
2023-05-06T09:25:09.039Z,92901.00
2023-05-06T09:26:08.922Z,92899.00
2023-05-06T09:27:10.666Z,92901.00
2023-05-06T09:28:08.907Z,92901.00
2023-05-06T09:29:08.983Z,92901.00
2023-05-06T09:30:09.031Z,92901.00
2023-05-06T09:31:09.260Z,92901.00
2023-05-06T09:32:09.182Z,92901.00
2023-05-06T09:33:09.318Z,92901.00
2023-05-06T09:34:09.303Z,92899.00
2023-05-06T09:35:09.606Z,92903.00
2023-05-06T09:36:09.518Z,92901.00
2023-05-06T09:37:09.512Z,92899.00
2023-05-06T09:38:09.579Z,92899.00
2023-05-06T09:39:09.648Z,92899.00
2023-05-06T09:40:09.712Z,92897.00
2023-05-06T09:41:09.774Z,92897.00
2023-05-06T09:42:09.842Z,92895.00
2023-05-06T09:43:09.909Z,92893.00
2023-05-06T09:44:09.974Z,92891.00
2023-05-06T09:45:10.338Z,92889.00
2023-05-06T09:46:10.125Z,92887.00
2023-05-06T09:47:10.167Z,92887.00
2023-05-06T09:48:10.346Z,92885.00
2023-05-06T09:49:10.301Z,92883.00
2023-05-06T09:50:10.372Z,92883.00
2023-05-06T09:51:10.427Z,92883.00
2023-05-06T09:52:10.543Z,92883.00
2023-05-06T09:53:10.547Z,92883.00
2023-05-06T09:54:10.614Z,92883.00
2023-05-06T09:55:10.840Z,92885.00
2023-05-06T09:56:10.728Z,92887.00
2023-05-06T09:57:10.813Z,92885.00
2023-05-06T09:58:10.849Z,92885.00
2023-05-06T09:59:10.914Z,92879.00
2023-05-06T10:00:10.973Z,92877.00
2023-05-06T10:01:12.082Z,92875.00
2023-05-06T10:02:11.173Z,92877.00
2023-05-06T10:03:11.288Z,92875.00
2023-05-06T10:04:11.322Z,92874.00
2023-05-06T10:05:11.796Z,92875.00
2023-05-06T10:06:11.336Z,92874.00
2023-05-06T10:07:11.400Z,92870.00
2023-05-06T10:08:11.506Z,92870.00
2023-05-06T10:09:11.522Z,92870.00
2023-05-06T10:10:11.570Z,92870.00
2023-05-06T10:11:11.602Z,92868.00
2023-05-06T10:12:11.665Z,92866.00
2023-05-06T10:13:11.753Z,92866.00
2023-05-06T10:14:11.782Z,92868.00
2023-05-06T10:15:12.031Z,92864.00
2023-05-06T10:16:12.823Z,92868.00
2023-05-06T10:17:11.869Z,92866.00
2023-05-06T10:18:11.883Z,92866.00
2023-05-06T10:19:11.874Z,92864.00
2023-05-06T10:20:11.859Z,92862.00
2023-05-06T10:21:11.858Z,92862.00
2023-05-06T10:22:11.873Z,92860.00
2023-05-06T10:23:11.873Z,92860.00
2023-05-06T10:24:11.949Z,92856.00
2023-05-06T10:25:11.980Z,92852.00
2023-05-06T10:26:11.874Z,92856.00
2023-05-06T10:27:11.869Z,92852.00
2023-05-06T10:28:26.567Z,92850.00
2023-05-06T10:29:12.872Z,92852.00
2023-05-06T10:30:11.887Z,92850.00
2023-05-06T10:31:11.933Z,92846.00
2023-05-06T10:32:11.891Z,92848.00
2023-05-06T10:33:11.903Z,92846.00
2023-05-06T10:34:11.899Z,92846.00
2023-05-06T10:35:12.179Z,92846.00
2023-05-06T10:36:11.920Z,92844.00
2023-05-06T10:37:11.910Z,92844.00
2023-05-06T10:38:11.925Z,92835.00
2023-05-06T10:39:11.934Z,92833.00
2023-05-06T10:40:11.998Z,92831.00
2023-05-06T10:41:11.986Z,92833.00
2023-05-06T10:42:12.034Z,92829.00
2023-05-06T10:43:12.091Z,92827.00
2023-05-06T10:44:12.159Z,92827.00
2023-05-06T10:45:12.360Z,92825.00
2023-05-06T10:46:12.348Z,92823.00
2023-05-06T10:47:12.354Z,92823.00
2023-05-06T10:48:12.393Z,92821.00
2023-05-06T10:49:12.464Z,92821.00
2023-05-06T10:50:12.557Z,92817.00
2023-05-06T10:51:12.587Z,92815.00
2023-05-06T10:52:12.675Z,92815.00
2023-05-06T10:53:12.761Z,92813.00
2023-05-06T10:54:12.807Z,92811.00
2023-05-06T10:55:13.058Z,92807.00
2023-05-06T10:56:13.029Z,92805.00
2023-05-06T10:57:13.020Z,92803.00
2023-05-06T10:58:13.063Z,92799.00
2023-05-06T10:59:13.147Z,92797.00
2023-05-06T11:00:13.231Z,92795.00
2023-05-06T11:01:13.398Z,92790.00
2023-05-06T11:02:13.352Z,92790.00
2023-05-06T11:03:13.508Z,92791.00
2023-05-06T11:04:13.490Z,92788.00
2023-05-06T11:05:13.552Z,92786.00
2023-05-06T11:06:13.614Z,92780.00
2023-05-06T11:07:13.669Z,92780.00
2023-05-06T11:08:13.806Z,92778.00
2023-05-06T11:09:13.763Z,92778.00
2023-05-06T11:10:13.820Z,92776.00
2023-05-06T11:11:13.876Z,92772.00
2023-05-06T11:12:13.922Z,92774.00
2023-05-06T11:13:14.033Z,92770.00
2023-05-06T11:14:14.036Z,92772.00
2023-05-06T11:15:14.084Z,92772.00
2023-05-06T11:16:14.165Z,92768.00
2023-05-06T11:17:14.221Z,92768.00
2023-05-06T11:18:14.267Z,92768.00
2023-05-06T11:19:14.309Z,92766.00
2023-05-06T11:20:14.393Z,92764.00
2023-05-06T11:21:14.391Z,92764.00
2023-05-06T11:22:14.427Z,92762.00
2023-05-06T11:23:14.472Z,92760.00
2023-05-06T11:24:14.508Z,92760.00
2023-05-06T11:25:14.538Z,92754.00
2023-05-06T11:26:14.583Z,92756.00
2023-05-06T11:27:14.651Z,92756.00
2023-05-06T11:28:14.852Z,92756.00
2023-05-06T11:29:14.769Z,92752.00
2023-05-06T11:30:14.861Z,92754.00
2023-05-06T11:31:15.020Z,92752.00
2023-05-06T11:32:14.995Z,92752.00
2023-05-06T11:33:15.053Z,92752.00
2023-05-06T11:34:15.124Z,92752.00
2023-05-06T11:35:15.183Z,92748.00
2023-05-06T11:36:15.233Z,92746.00
2023-05-06T11:37:15.299Z,92746.00
2023-05-06T11:38:15.351Z,92746.00
2023-05-06T11:39:15.420Z,92750.00
2023-05-06T11:40:15.506Z,92748.00
2023-05-06T11:41:15.559Z,92746.00
2023-05-06T11:42:15.629Z,92746.00
2023-05-06T11:43:15.694Z,92743.00
2023-05-06T11:44:15.874Z,92744.00
2023-05-06T11:45:15.818Z,92741.00